sensor_id;sensor_type;location;lat;lon;timestamp;pressure;altitude;pressure_sealevel;temperature;humidity
9460;BME280;4768;42.664;23.240;2022-08-21T00:01:51;171330.72;;;16.45;100.00
9460;BME280;4768;42.664;23.240;2022-08-21T00:04:18;171336.13;;;16.47;100.00
9460;BME280;4768;42.664;23.240;2022-08-21T00:06:44;171332.09;;;16.46;100.00
9460;BME280;4768;42.664;23.240;2022-08-21T00:09:11;171341.44;;;16.49;100.00
9460;BME280;4768;42.664;23.240;2022-08-21T00:11:39;171318.69;;;16.41;100.00
9460;BME280;4768;42.664;23.240;2022-08-21T00:14:08;171308.03;;;16.37;100.00
9460;BME280;4768;42.664;23.240;2022-08-21T00:16:36;171304.00;;;16.36;100.00
9460;BME280;4768;42.664;23.240;2022-08-21T00:19:04;171301.31;;;16.35;100.00
9460;BME280;4768;42.664;23.240;2022-08-21T00:21:32;171324.06;;;16.43;100.00
9460;BME280;4768;42.664;23.240;2022-08-21T00:23:59;171332.09;;;16.46;100.00
9460;BME280;4768;42.664;23.240;2022-08-21T00:26:26;171337.44;;;16.48;100.00
9460;BME280;4768;42.664;23.240;2022-08-21T00:28:54;171316.06;;;16.40;100.00
9460;BME280;4768;42.664;23.240;2022-08-21T00:31:21;171317.38;;;16.41;100.00
9460;BME280;4768;42.664;23.240;2022-08-21T00:33:48;171314.69;;;16.40;100.00
9460;BME280;4768;42.664;23.240;2022-08-21T00:36:15;171287.97;;;16.30;100.00
9460;BME280;4768;42.664;23.240;2022-08-21T00:38:42;171282.56;;;16.28;100.00
9460;BME280;4768;42.664;23.240;2022-08-21T00:41:09;171273.22;;;16.24;100.00
9460;BME280;4768;42.664;23.240;2022-08-21T00:43:38;171283.94;;;16.28;100.00
9460;BME280;4768;42.664;23.240;2022-08-21T00:46:06;171314.69;;;16.40;100.00
9460;BME280;4768;42.664;23.240;2022-08-21T00:48:34;171283.94;;;16.28;100.00
9460;BME280;4768;42.664;23.240;2022-08-21T00:51:05;171238.41;;;16.11;100.00
9460;BME280;4768;42.664;23.240;2022-08-21T00:53:35;171265.16;;;16.21;100.00
9460;BME280;4768;42.664;23.240;2022-08-21T00:56:05;171275.94;;;16.25;100.00
9460;BME280;4768;42.664;23.240;2022-08-21T00:58:33;171281.25;;;16.27;100.00
9460;BME280;4768;42.664;23.240;2022-08-21T01:01:04;171267.91;;;16.22;100.00
9460;BME280;4768;42.664;23.240;2022-08-21T01:03:33;171265.16;;;16.21;100.00
9460;BME280;4768;42.664;23.240;2022-08-21T01:06:01;171250.44;;;16.16;100.00
9460;BME280;4768;42.664;23.240;2022-08-21T01:08:29;171237.06;;;16.11;100.00
9460;BME280;4768;42.664;23.240;2022-08-21T01:10:56;171255.81;;;16.18;100.00
9460;BME280;4768;42.664;23.240;2022-08-21T01:13:26;171249.09;;;16.15;100.00
9460;BME280;4768;42.664;23.240;2022-08-21T01:15:55;171257.13;;;16.18;100.00
9460;BME280;4768;42.664;23.240;2022-08-21T01:18:23;171281.25;;;16.27;100.00
9460;BME280;4768;42.664;23.240;2022-08-21T01:21:04;171266.47;;;16.22;100.00
9460;BME280;4768;42.664;23.240;2022-08-21T01:23:32;171254.44;;;16.17;100.00
9460;BME280;4768;42.664;23.240;2022-08-21T01:25:59;171229.06;;;16.08;100.00
9460;BME280;4768;42.664;23.240;2022-08-21T01:28:26;171214.31;;;16.02;100.00
9460;BME280;4768;42.664;23.240;2022-08-21T01:30:55;171243.78;;;16.13;100.00
9460;BME280;4768;42.664;23.240;2022-08-21T01:33:24;171226.34;;;16.07;100.00
9460;BME280;4768;42.664;23.240;2022-08-21T01:35:51;171209.00;;;16.00;100.00
9460;BME280;4768;42.664;23.240;2022-08-21T01:38:19;171207.66;;;16.00;100.00
9460;BME280;4768;42.664;23.240;2022-08-21T01:40:46;171202.28;;;15.98;100.00
9460;BME280;4768;42.664;23.240;2022-08-21T01:43:13;171204.97;;;15.99;100.00
9460;BME280;4768;42.664;23.240;2022-08-21T01:45:40;171203.66;;;15.98;100.00
9460;BME280;4768;42.664;23.240;2022-08-21T01:48:06;171199.66;;;15.97;100.00
9460;BME280;4768;42.664;23.240;2022-08-21T01:53:01;171200.97;;;15.97;100.00
9460;BME280;4768;42.664;23.240;2022-08-21T01:55:29;171195.63;;;15.96;100.00
9460;BME280;4768;42.664;23.240;2022-08-21T01:57:57;171200.97;;;15.97;100.00
9460;BME280;4768;42.664;23.240;2022-08-21T02:00:24;171184.94;;;15.92;100.00
9460;BME280;4768;42.664;23.240;2022-08-21T02:02:51;171176.91;;;15.89;100.00
9460;BME280;4768;42.664;23.240;2022-08-21T02:05:19;171163.53;;;15.84;100.00
9460;BME280;4768;42.664;23.240;2022-08-21T02:07:49;171158.16;;;15.82;100.00
9460;BME280;4768;42.664;23.240;2022-08-21T02:10:19;171148.81;;;15.78;100.00
9460;BME280;4768;42.664;23.240;2022-08-21T02:12:47;171144.81;;;15.77;100.00
9460;BME280;4768;42.664;23.240;2022-08-21T02:15:15;171144.81;;;15.77;100.00
9460;BME280;4768;42.664;23.240;2022-08-21T02:17:44;-9860.47;;;15.74;100.00
9460;BME280;4768;42.664;23.240;2022-08-21T02:20:22;-9864.31;;;15.88;100.00
9460;BME280;4768;42.664;23.240;2022-08-21T02:22:49;-9865.59;;;15.92;100.00
9460;BME280;4768;42.664;23.240;2022-08-21T02:25:18;-9863.47;;;15.85;100.00
9460;BME280;4768;42.664;23.240;2022-08-21T02:27:47;-9864.31;;;15.88;100.00
9460;BME280;4768;42.664;23.240;2022-08-21T02:30:15;-9863.03;;;15.83;100.00
9460;BME280;4768;42.664;23.240;2022-08-21T02:32:43;-9862.19;;;15.80;100.00
9460;BME280;4768;42.664;23.240;2022-08-21T02:35:10;-9861.31;;;15.77;100.00
9460;BME280;4768;42.664;23.240;2022-08-21T02:37:43;-9861.59;;;15.78;100.00
9460;BME280;4768;42.664;23.240;2022-08-21T02:40:11;-9861.47;;;15.78;100.00
9460;BME280;4768;42.664;23.240;2022-08-21T02:42:37;-9860.03;;;15.73;100.00
9460;BME280;4768;42.664;23.240;2022-08-21T02:45:07;-9858.91;;;15.69;100.00
9460;BME280;4768;42.664;23.240;2022-08-21T02:47:34;-9858.91;;;15.69;100.00
9460;BME280;4768;42.664;23.240;2022-08-21T02:50:01;-9859.75;;;15.72;100.00
9460;BME280;4768;42.664;23.240;2022-08-21T02:52:28;-9858.63;;;15.68;100.00
9460;BME280;4768;42.664;23.240;2022-08-21T02:54:55;-9858.19;;;15.66;100.00
9460;BME280;4768;42.664;23.240;2022-08-21T02:57:21;-9858.91;;;15.69;100.00
9460;BME280;4768;42.664;23.240;2022-08-21T02:59:48;-9857.34;;;15.63;100.00
9460;BME280;4768;42.664;23.240;2022-08-21T03:02:16;-9856.34;;;15.60;100.00
9460;BME280;4768;42.664;23.240;2022-08-21T03:04:43;-9856.34;;;15.60;100.00
9460;BME280;4768;42.664;23.240;2022-08-21T03:07:10;-9855.19;;;15.56;100.00
9460;BME280;4768;42.664;23.240;2022-08-21T03:09:36;-9858.34;;;15.67;100.00
9460;BME280;4768;42.664;23.240;2022-08-21T03:12:04;-9858.63;;;15.68;100.00
9460;BME280;4768;42.664;23.240;2022-08-21T03:14:30;-9858.75;;;15.68;100.00
9460;BME280;4768;42.664;23.240;2022-08-21T03:16:57;-9857.75;;;15.65;100.00
9460;BME280;4768;42.664;23.240;2022-08-21T03:19:25;-9858.03;;;15.66;100.00
9460;BME280;4768;42.664;23.240;2022-08-21T03:21:52;-9857.34;;;15.63;100.00
9460;BME280;4768;42.664;23.240;2022-08-21T03:24:19;-9856.19;;;15.59;100.00
9460;BME280;4768;42.664;23.240;2022-08-21T03:26:45;-9858.03;;;15.66;100.00
9460;BME280;4768;42.664;23.240;2022-08-21T03:29:12;-9858.75;;;15.68;100.00
9460;BME280;4768;42.664;23.240;2022-08-21T03:31:39;-9859.63;;;15.71;100.00
9460;BME280;4768;42.664;23.240;2022-08-21T03:34:06;-9861.59;;;15.78;100.00
9460;BME280;4768;42.664;23.240;2022-08-21T03:36:34;-9862.88;;;15.83;100.00
9460;BME280;4768;42.664;23.240;2022-08-21T03:39:01;-9861.75;;;15.79;100.00
9460;BME280;4768;42.664;23.240;2022-08-21T03:41:28;-9859.31;;;15.70;100.00
9460;BME280;4768;42.664;23.240;2022-08-21T03:43:54;-9859.31;;;15.70;100.00
9460;BME280;4768;42.664;23.240;2022-08-21T03:46:21;-9858.75;;;15.68;100.00
9460;BME280;4768;42.664;23.240;2022-08-21T03:48:48;-9860.19;;;15.73;100.00
9460;BME280;4768;42.664;23.240;2022-08-21T03:51:15;-9861.19;;;15.77;100.00
9460;BME280;4768;42.664;23.240;2022-08-21T03:53:43;-9860.47;;;15.74;100.00
9460;BME280;4768;42.664;23.240;2022-08-21T03:56:10;-9859.91;;;15.72;100.00
9460;BME280;4768;42.664;23.240;2022-08-21T03:58:37;-9859.91;;;15.72;100.00
9460;BME280;4768;42.664;23.240;2022-08-21T04:01:05;-9860.91;;;15.76;100.00
9460;BME280;4768;42.664;23.240;2022-08-21T04:03:35;-9859.91;;;15.72;100.00
9460;BME280;4768;42.664;23.240;2022-08-21T04:06:02;-9862.59;;;15.82;100.00
9460;BME280;4768;42.664;23.240;2022-08-21T04:08:29;-9862.75;;;15.82;100.00
9460;BME280;4768;42.664;23.240;2022-08-21T04:10:57;-9864.16;;;15.87;100.00
9460;BME280;4768;42.664;23.240;2022-08-21T04:13:25;-9864.88;;;15.90;100.00
9460;BME280;4768;42.664;23.240;2022-08-21T04:15:53;-9862.88;;;15.83;100.00
9460;BME280;4768;42.664;23.240;2022-08-21T04:18:20;-9867.31;;;15.98;100.00
9460;BME280;4768;42.664;23.240;2022-08-21T04:20:49;-9865.16;;;15.91;100.00
9460;BME280;4768;42.664;23.240;2022-08-21T04:23:18;-9870.88;;;16.10;100.00
9460;BME280;4768;42.664;23.240;2022-08-21T04:25:45;-9872.00;;;16.14;100.00
9460;BME280;4768;42.664;23.240;2022-08-21T04:28:13;-9872.00;;;16.14;100.00
9460;BME280;4768;42.664;23.240;2022-08-21T04:30:40;-9873.44;;;16.19;100.00
9460;BME280;4768;42.664;23.240;2022-08-21T04:33:06;-9874.56;;;16.23;100.00
9460;BME280;4768;42.664;23.240;2022-08-21T04:35:33;-9877.00;;;16.32;100.00
9460;BME280;4768;42.664;23.240;2022-08-21T04:38:00;-9873.72;;;16.20;100.00
9460;BME280;4768;42.664;23.240;2022-08-21T04:40:27;-9875.16;;;16.25;100.00
9460;BME280;4768;42.664;23.240;2022-08-21T04:42:56;-9877.00;;;16.32;100.00
9460;BME280;4768;42.664;23.240;2022-08-21T04:45:26;-9878.13;;;16.36;100.00
9460;BME280;4768;42.664;23.240;2022-08-21T04:47:55;-9879.13;;;16.39;100.00
9460;BME280;4768;42.664;23.240;2022-08-21T04:50:26;-9880.84;;;16.45;100.00
9460;BME280;4768;42.664;23.240;2022-08-21T04:52:54;-9880.13;;;16.43;100.00
9460;BME280;4768;42.664;23.240;2022-08-21T04:55:22;-9885.41;;;16.61;100.00
9460;BME280;4768;42.664;23.240;2022-08-21T04:57:52;-9883.69;;;16.55;100.00
9460;BME280;4768;42.664;23.240;2022-08-21T05:00:20;-9886.81;;;16.66;100.00
9460;BME280;4768;42.664;23.240;2022-08-21T05:02:52;-9887.41;;;16.68;100.00
9460;BME280;4768;42.664;23.240;2022-08-21T05:05:21;-9890.25;;;16.78;100.00
9460;BME280;4768;42.664;23.240;2022-08-21T05:07:48;-9889.25;;;16.74;100.00
9460;BME280;4768;42.664;23.240;2022-08-21T05:10:15;-9886.81;;;16.66;100.00
9460;BME280;4768;42.664;23.240;2022-08-21T05:12:43;-9886.81;;;16.66;100.00
9460;BME280;4768;42.664;23.240;2022-08-21T05:15:11;-9890.81;;;16.80;100.00
9460;BME280;4768;42.664;23.240;2022-08-21T05:17:38;-9887.53;;;16.68;100.00
9460;BME280;4768;42.664;23.240;2022-08-21T05:20:07;-9887.25;;;16.67;100.00
9460;BME280;4768;42.664;23.240;2022-08-21T05:22:34;-9885.97;;;16.63;100.00
9460;BME280;4768;42.664;23.240;2022-08-21T05:25:01;-9886.97;;;16.66;100.00
9460;BME280;4768;42.664;23.240;2022-08-21T05:27:28;-9887.41;;;16.68;100.00
9460;BME280;4768;42.664;23.240;2022-08-21T05:29:55;-9890.53;;;16.79;100.00
9460;BME280;4768;42.664;23.240;2022-08-21T05:32:22;-9891.38;;;16.82;100.00
9460;BME280;4768;42.664;23.240;2022-08-21T05:34:49;-9888.53;;;16.72;100.00
9460;BME280;4768;42.664;23.240;2022-08-21T05:37:17;-9890.25;;;16.78;100.00
9460;BME280;4768;42.664;23.240;2022-08-21T05:39:44;-9894.66;;;16.93;100.00
9460;BME280;4768;42.664;23.240;2022-08-21T05:42:11;-9900.22;;;17.12;100.00
9460;BME280;4768;42.664;23.240;2022-08-21T05:44:38;-9894.38;;;16.92;100.00
9460;BME280;4768;42.664;23.240;2022-08-21T05:47:05;-9887.81;;;16.69;100.00
9460;BME280;4768;42.664;23.240;2022-08-21T05:49:33;-9884.41;;;16.57;100.00
9460;BME280;4768;42.664;23.240;2022-08-21T05:52:00;-9888.09;;;16.70;100.00
9460;BME280;4768;42.664;23.240;2022-08-21T05:54:28;-9887.13;;;16.67;100.00
9460;BME280;4768;42.664;23.240;2022-08-21T05:56:55;-9889.53;;;16.75;100.00
9460;BME280;4768;42.664;23.240;2022-08-21T05:59:22;-9892.66;;;16.86;100.00
9460;BME280;4768;42.664;23.240;2022-08-21T06:01:49;-9889.97;;;16.77;100.00
9460;BME280;4768;42.664;23.240;2022-08-21T06:04:18;-9888.81;;;16.73;100.00
9460;BME280;4768;42.664;23.240;2022-08-21T06:06:45;-9892.09;;;16.84;100.00
9460;BME280;4768;42.664;23.240;2022-08-21T06:09:12;-9907.94;;;17.39;100.00
9460;BME280;4768;42.664;23.240;2022-08-21T06:11:40;-9908.34;;;17.41;100.00
9460;BME280;4768;42.664;23.240;2022-08-21T06:14:07;-9908.34;;;17.41;100.00
9460;BME280;4768;42.664;23.240;2022-08-21T06:16:34;-9919.75;;;17.80;100.00
9460;BME280;4768;42.664;23.240;2022-08-21T06:19:01;-9913.91;;;17.60;100.00
9460;BME280;4768;42.664;23.240;2022-08-21T06:21:27;-9924.91;;;17.98;100.00
9460;BME280;4768;42.664;23.240;2022-08-21T06:23:54;-9942.00;;;18.57;100.00
9460;BME280;4768;42.664;23.240;2022-08-21T06:26:21;-9931.03;;;18.19;100.00
9460;BME280;4768;42.664;23.240;2022-08-21T06:28:50;-9942.88;;;18.60;100.00
9460;BME280;4768;42.664;23.240;2022-08-21T06:31:18;-9952.00;;;18.92;100.00
9460;BME280;4768;42.664;23.240;2022-08-21T06:33:46;-9952.16;;;18.92;100.00
9460;BME280;4768;42.664;23.240;2022-08-21T06:36:13;-9958.72;;;19.15;100.00
9460;BME280;4768;42.664;23.240;2022-08-21T06:38:40;-9959.00;;;19.16;100.00
9460;BME280;4768;42.664;23.240;2022-08-21T06:41:07;-9960.00;;;19.20;100.00
9460;BME280;4768;42.664;23.240;2022-08-21T06:43:34;-9957.72;;;19.12;100.00
9460;BME280;4768;42.664;23.240;2022-08-21T06:46:03;-9967.13;;;19.44;100.00
9460;BME280;4768;42.664;23.240;2022-08-21T06:48:29;-9950.28;;;18.86;100.00
9460;BME280;4768;42.664;23.240;2022-08-21T06:50:58;-9967.56;;;19.46;100.00
9460;BME280;4768;42.664;23.240;2022-08-21T06:53:25;-9959.56;;;19.18;100.00
9460;BME280;4768;42.664;23.240;2022-08-21T06:55:53;-9961.44;;;19.25;100.00
9460;BME280;4768;42.664;23.240;2022-08-21T06:58:20;-9950.44;;;18.87;100.00
9460;BME280;4768;42.664;23.240;2022-08-21T07:00:48;-9943.44;;;18.62;100.00
9460;BME280;4768;42.664;23.240;2022-08-21T07:03:19;-9942.72;;;18.60;100.00
9460;BME280;4768;42.664;23.240;2022-08-21T07:05:46;-9944.00;;;18.64;100.00
9460;BME280;4768;42.664;23.240;2022-08-21T07:08:13;-9943.88;;;18.64;100.00
9460;BME280;4768;42.664;23.240;2022-08-21T07:10:40;-9944.44;;;18.66;100.00
9460;BME280;4768;42.664;23.240;2022-08-21T07:13:07;-9947.00;;;18.75;100.00
9460;BME280;4768;42.664;23.240;2022-08-21T07:15:34;-9934.75;;;18.32;100.00
9460;BME280;4768;42.664;23.240;2022-08-21T07:18:01;-9947.16;;;18.75;100.00
9460;BME280;4768;42.664;23.240;2022-08-21T07:20:30;-9951.16;;;18.89;100.00
9460;BME280;4768;42.664;23.240;2022-08-21T07:23:00;-9957.56;;;19.11;100.00
9460;BME280;4768;42.664;23.240;2022-08-21T07:25:28;-9965.56;;;19.39;100.00
9460;BME280;4768;42.664;23.240;2022-08-21T07:27:55;-9980.41;;;19.90;100.00
9460;BME280;4768;42.664;23.240;2022-08-21T07:30:22;-9989.00;;;20.20;100.00
9460;BME280;4768;42.664;23.240;2022-08-21T07:32:50;-9996.69;;;20.47;100.00
9460;BME280;4768;42.664;23.240;2022-08-21T07:35:17;-10000.00;;;20.58;100.00
9460;BME280;4768;42.664;23.240;2022-08-21T07:37:46;-9987.13;;;20.14;100.00
9460;BME280;4768;42.664;23.240;2022-08-21T07:40:13;-9978.41;;;19.84;100.00
9460;BME280;4768;42.664;23.240;2022-08-21T07:42:40;-9983.28;;;20.00;100.00
9460;BME280;4768;42.664;23.240;2022-08-21T07:45:08;-9990.69;;;20.26;100.00
9460;BME280;4768;42.664;23.240;2022-08-21T07:47:36;-9978.97;;;19.86;100.00
9460;BME280;4768;42.664;23.240;2022-08-21T07:50:05;-9982.72;;;19.98;100.00
9460;BME280;4768;42.664;23.240;2022-08-21T07:52:33;-9973.72;;;19.67;100.00
9460;BME280;4768;42.664;23.240;2022-08-21T07:55:01;-9965.44;;;19.38;100.00
9460;BME280;4768;42.664;23.240;2022-08-21T07:57:28;-9964.56;;;19.36;100.00
9460;BME280;4768;42.664;23.240;2022-08-21T07:59:54;-9962.16;;;19.27;100.00
9460;BME280;4768;42.664;23.240;2022-08-21T08:02:23;-9960.00;;;19.20;100.00
9460;BME280;4768;42.664;23.240;2022-08-21T08:04:49;-9963.28;;;19.31;100.00
9460;BME280;4768;42.664;23.240;2022-08-21T08:07:17;-9963.56;;;19.32;100.00
9460;BME280;4768;42.664;23.240;2022-08-21T08:09:44;-9968.56;;;19.49;100.00
9460;BME280;4768;42.664;23.240;2022-08-21T08:12:12;-9959.28;;;19.17;100.00
9460;BME280;4768;42.664;23.240;2022-08-21T08:14:39;-9968.56;;;19.49;100.00
9460;BME280;4768;42.664;23.240;2022-08-21T08:17:06;-9978.69;;;19.85;100.00
9460;BME280;4768;42.664;23.240;2022-08-21T08:19:32;-9983.41;;;20.01;100.00
9460;BME280;4768;42.664;23.240;2022-08-21T08:21:59;-10002.28;;;20.66;100.00
9460;BME280;4768;42.664;23.240;2022-08-21T08:24:26;-10014.69;;;21.09;100.00
9460;BME280;4768;42.664;23.240;2022-08-21T08:26:53;-10006.13;;;20.80;100.00
9460;BME280;4768;42.664;23.240;2022-08-21T08:29:23;-10009.84;;;20.92;100.00
9460;BME280;4768;42.664;23.240;2022-08-21T08:31:50;-10005.69;;;20.78;100.00
9460;BME280;4768;42.664;23.240;2022-08-21T08:34:17;-10015.84;;;21.13;100.00
9460;BME280;4768;42.664;23.240;2022-08-21T08:36:45;-10029.56;;;21.61;100.00
9460;BME280;4768;42.664;23.240;2022-08-21T08:39:12;-10015.00;;;21.10;100.00
9460;BME280;4768;42.664;23.240;2022-08-21T08:41:40;-9661.97;;;20.97;100.00
9460;BME280;4768;42.664;23.240;2022-08-21T08:44:07;-9310.56;;;20.82;100.00
9460;BME280;4768;42.664;23.240;2022-08-21T08:46:39;-10010.00;;;20.93;100.00
9460;BME280;4768;42.664;23.240;2022-08-21T08:49:13;-10031.84;;;21.69;100.00
9460;BME280;4768;42.664;23.240;2022-08-21T08:51:44;-6549.00;;;21.52;100.00
9460;BME280;4768;42.664;23.240;2022-08-21T08:54:15;-7589.56;;;21.41;100.00
9460;BME280;4768;42.664;23.240;2022-08-21T08:56:44;-5498.09;;;21.18;100.00
9460;BME280;4768;42.664;23.240;2022-08-21T08:59:15;-3769.94;;;21.75;100.00
9460;BME280;4768;42.664;23.240;2022-08-21T09:01:46;-2382.81;;;22.11;100.00
9460;BME280;4768;42.664;23.240;2022-08-21T09:04:17;-1678.16;;;21.63;100.00
9460;BME280;4768;42.664;23.240;2022-08-21T09:06:56;-2370.88;;;21.39;100.00
9460;BME280;4768;42.664;23.240;2022-08-21T09:09:37;-1343.34;;;22.54;100.00
9460;BME280;4768;42.664;23.240;2022-08-21T09:12:14;2490.63;;;23.25;100.00
9460;BME280;4768;42.664;23.240;2022-08-21T09:14:50;21422.28;;;22.91;100.00
9460;BME280;4768;42.664;23.240;2022-08-21T09:17:34;22105.84;;;22.05;100.00
9460;BME280;4768;42.664;23.240;2022-08-21T09:20:15;11237.59;;;21.81;100.00
9460;BME280;4768;42.664;23.240;2022-08-21T09:22:53;7391.56;;;21.93;100.00
9460;BME280;4768;42.664;23.240;2022-08-21T09:25:25;8440.28;;;22.03;100.00
9460;BME280;4768;42.664;23.240;2022-08-21T09:27:52;6692.34;;;22.08;100.00
9460;BME280;4768;42.664;23.240;2022-08-21T09:30:24;8090.63;;;21.98;100.00
9460;BME280;4768;42.664;23.240;2022-08-21T09:32:53;10887.81;;;21.82;100.00
9460;BME280;4768;42.664;23.240;2022-08-21T09:35:21;12288.56;;;21.99;100.00
9460;BME280;4768;42.664;23.240;2022-08-21T09:37:52;7391.00;;;22.49;100.00
9460;BME280;4768;42.664;23.240;2022-08-21T09:40:27;9840.56;;;22.48;100.00
9460;BME280;4768;42.664;23.240;2022-08-21T09:42:57;15793.16;;;22.17;100.00
9460;BME280;4768;42.664;23.240;2022-08-21T09:45:24;20702.69;;;22.10;100.00
9460;BME280;4768;42.664;23.240;2022-08-21T09:47:53;22803.09;;;21.84;100.00
9460;BME280;4768;42.664;23.240;2022-08-21T09:50:23;18590.16;;;21.68;100.00
9460;BME280;4768;42.664;23.240;2022-08-21T09:52:53;16837.91;;;21.68;100.00
9460;BME280;4768;42.664;23.240;2022-08-21T09:55:29;8090.63;;;21.99;100.00
9460;BME280;4768;42.664;23.240;2022-08-21T09:58:14;14390.34;;;22.07;100.00
9460;BME280;4768;42.664;23.240;2022-08-21T10:00:42;17895.59;;;22.09;100.00
9460;BME280;4768;42.664;23.240;2022-08-21T10:03:24;15794.16;;;22.25;100.00
9460;BME280;4768;42.664;23.240;2022-08-21T10:05:54;13345.75;;;22.79;100.00
9460;BME280;4768;42.664;23.240;2022-08-21T10:08:23;14754.44;;;23.34;100.00
9460;BME280;4768;42.664;23.240;2022-08-21T10:10:54;28476.13;;;23.39;100.00
9460;BME280;4768;42.664;23.240;2022-08-21T10:13:27;24950.84;;;23.33;100.00
9460;BME280;4768;42.664;23.240;2022-08-21T10:16:07;28105.94;;;22.84;100.00
9460;BME280;4768;42.664;23.240;2022-08-21T10:18:39;23178.50;;;22.83;100.00
9460;BME280;4768;42.664;23.240;2022-08-21T10:21:17;28114.94;;;23.12;100.00
9460;BME280;4768;42.664;23.240;2022-08-21T10:23:54;28129.84;;;23.58;100.00
9460;BME280;4768;42.664;23.240;2022-08-21T10:26:31;33064.44;;;23.44;100.00
9460;BME280;4768;42.664;23.240;2022-08-21T10:29:09;36577.75;;;23.02;100.00
9460;BME280;4768;42.664;23.240;2022-08-21T10:31:46;35152.69;;;22.74;100.00
9460;BME280;4768;42.664;23.240;2022-08-21T10:34:29;37981.03;;;22.82;100.00
9460;BME280;4768;42.664;23.240;2022-08-21T10:37:09;39756.53;;;22.99;100.00
9460;BME280;4768;42.664;23.240;2022-08-21T10:39:48;50008.66;;;22.77;100.00
9460;BME280;4768;42.664;23.240;2022-08-21T10:42:33;35528.00;;;23.24;100.00
9460;BME280;4768;42.664;23.240;2022-08-21T10:45:11;38362.38;;;23.39;100.00
9460;BME280;4768;42.664;23.240;2022-08-21T10:47:46;39070.13;;;23.40;100.00
9460;BME280;4768;42.664;23.240;2022-08-21T10:50:28;42606.28;;;23.36;100.00
9460;BME280;4768;42.664;23.240;2022-08-21T10:53:05;48631.38;;;23.38;100.00
9460;BME280;4768;42.664;23.240;2022-08-21T10:55:40;52519.66;;;23.17;100.00
9460;BME280;4768;42.664;23.240;2022-08-21T10:58:10;44742.25;;;23.55;100.00
9460;BME280;4768;42.664;23.240;2022-08-21T11:00:42;38035.38;;;23.94;100.00
9460;BME280;4768;42.664;23.240;2022-08-21T11:03:14;47243.41;;;23.86;100.00
9460;BME280;4768;42.664;23.240;2022-08-21T11:05:49;50071.88;;;23.70;100.00
9460;BME280;4768;42.664;23.240;2022-08-21T11:08:22;49343.75;;;23.42;100.00
9460;BME280;4768;42.664;23.240;2022-08-21T11:10:53;41899.38;;;23.38;100.00
9460;BME280;4768;42.664;23.240;2022-08-21T11:13:29;40497.59;;;23.64;100.00
9460;BME280;4768;42.664;23.240;2022-08-21T11:16:03;42981.28;;;23.73;100.00
9460;BME280;4768;42.664;23.240;2022-08-21T11:18:34;45469.88;;;23.86;100.00
9460;BME280;4768;42.664;23.240;2022-08-21T11:21:17;47605.78;;;23.98;100.00
9460;BME280;4768;42.664;23.240;2022-08-21T11:23:48;44050.00;;;23.83;100.00
9460;BME280;4768;42.664;23.240;2022-08-21T11:26:21;42988.81;;;23.86;100.00
9460;BME280;4768;42.664;23.240;2022-08-21T11:28:54;43349.09;;;23.97;100.00
9460;BME280;4768;42.664;23.240;2022-08-21T11:31:34;41944.06;;;24.20;100.00
9460;BME280;4768;42.664;23.240;2022-08-21T11:34:14;44091.47;;;24.54;100.00
9460;BME280;4768;42.664;23.240;2022-08-21T11:36:53;56865.38;;;24.23;100.00
9460;BME280;4768;42.664;23.240;2022-08-21T11:39:28;52221.97;;;23.97;100.00
9460;BME280;4768;42.664;23.240;2022-08-21T11:42:02;39827.56;;;24.38;100.00
9460;BME280;4768;42.664;23.240;2022-08-21T11:44:38;53999.72;;;23.97;100.00
9460;BME280;4768;42.664;23.240;2022-08-21T11:47:13;56820.88;;;23.66;100.00
9460;BME280;4768;42.664;23.240;2022-08-21T11:49:53;44398.97;;;23.74;100.00
9460;BME280;4768;42.664;23.240;2022-08-21T11:52:29;41932.16;;;23.98;100.00
9460;BME280;4768;42.664;23.240;2022-08-21T11:55:04;50798.00;;;23.93;100.00
9460;BME280;4768;42.664;23.240;2022-08-21T11:57:37;56809.16;;;23.51;100.00
9460;BME280;4768;42.664;23.240;2022-08-21T12:00:12;56427.97;;;23.19;100.00
9460;BME280;4768;42.664;23.240;2022-08-21T12:02:45;49347.06;;;23.47;100.00
9460;BME280;4768;42.664;23.240;2022-08-21T12:05:26;64621.00;;;23.29;100.00
9460;BME280;4768;42.664;23.240;2022-08-21T12:08:10;51123.91;;;23.51;100.00
9460;BME280;4768;42.664;23.240;2022-08-21T12:10:40;56102.63;;;23.57;100.00
9460;BME280;4768;42.664;23.240;2022-08-21T12:13:10;51831.91;;;23.48;100.00
9460;BME280;4768;42.664;23.240;2022-08-21T12:15:39;62486.09;;;23.32;100.00
9460;BME280;4768;42.664;23.240;2022-08-21T12:18:20;64972.75;;;23.24;100.00
9460;BME280;4768;42.664;23.240;2022-08-21T12:20:59;57507.75;;;23.35;100.00
9460;BME280;4768;42.664;23.240;2022-08-21T12:23:30;60358.22;;;23.41;100.00
9460;BME280;4768;42.664;23.240;2022-08-21T12:26:16;57856.16;;;23.27;100.00
9460;BME280;4768;42.664;23.240;2022-08-21T12:28:47;47216.13;;;23.43;100.00
9460;BME280;4768;42.664;23.240;2022-08-21T12:31:19;47910.63;;;23.20;100.00
9460;BME280;4768;42.664;23.240;2022-08-21T12:33:51;42601.31;;;23.27;100.00
9460;BME280;4768;42.664;23.240;2022-08-21T12:36:23;44367.00;;;23.19;100.00
9460;BME280;4768;42.664;23.240;2022-08-21T12:38:56;49333.19;;;23.27;100.00
9460;BME280;4768;42.664;23.240;2022-08-21T12:41:27;52522.88;;;23.21;100.00
9460;BME280;4768;42.664;23.240;2022-08-21T12:43:59;54292.31;;;23.13;100.00
9460;BME280;4768;42.664;23.240;2022-08-21T12:46:34;48970.66;;;23.15;100.00
9460;BME280;4768;42.664;23.240;2022-08-21T12:49:08;47547.31;;;23.06;100.00
9460;BME280;4768;42.664;23.240;2022-08-21T12:51:48;52142.13;;;22.85;100.00
9460;BME280;4768;42.664;23.240;2022-08-21T12:54:25;51436.53;;;22.90;100.00
9460;BME280;4768;42.664;23.240;2022-08-21T12:56:59;58890.84;;;22.87;100.00
9460;BME280;4768;42.664;23.240;2022-08-21T12:59:28;52151.31;;;22.98;100.00
9460;BME280;4768;42.664;23.240;2022-08-21T13:01:55;48246.47;;;22.91;100.00
9460;BME280;4768;42.664;23.240;2022-08-21T13:04:32;47181.03;;;22.87;100.00
9460;BME280;4768;42.664;23.240;2022-08-21T13:07:05;45758.69;;;22.78;100.00
9460;BME280;4768;42.664;23.240;2022-08-21T13:09:42;41513.03;;;22.78;100.00
9460;BME280;4768;42.664;23.240;2022-08-21T13:12:11;37980.31;;;22.81;100.00
9460;BME280;4768;42.664;23.240;2022-08-21T13:14:40;35511.72;;;22.87;100.00